Fort Davis, Texas
Current Conditions -  °F | °C
As of 4:15 PM on Wednesday 28 Jan 2015 (Local Time) from KMRF Reporting Station
Few Clouds Few Clouds  
Wind Chill: 70°   Ceiling: Unl
Heat Index: 70°   Visibility: 10mi
Dew Point: 45°   Wind: 10mph
Humidity: 40%   Direction: 150°SSE
Pressure: 30.18"   Gusts: 16mph
Location:  30.59°N, 103.9°W
Report Text: KMRF 282215Z AUTO 15009G14KT 10SM FEW090 21/07 A3018 RMK AO1
Loading
Personal Weather Stations






























Interactive Weather Map New forecast layout! Learn more

10-Day Weather Forecast

Advertisements
Track Severe Weather on mobile